sensor_id;sensor_type;location;lat;lon;timestamp;pressure;altitude;pressure_sealevel;temperature;humidity
5574;BME280;2563;52.242;7.956;2023-05-13T00:00:14;100713.31;;;11.12;100.00
5574;BME280;2563;52.242;7.956;2023-05-13T00:02:40;100714.31;;;11.05;100.00
5574;BME280;2563;52.242;7.956;2023-05-13T00:05:06;100711.03;;;11.00;100.00
5574;BME280;2563;52.242;7.956;2023-05-13T00:07:32;100710.28;;;10.95;100.00
5574;BME280;2563;52.242;7.956;2023-05-13T00:09:57;100707.84;;;10.89;100.00
5574;BME280;2563;52.242;7.956;2023-05-13T00:12:23;100703.63;;;10.84;100.00
5574;BME280;2563;52.242;7.956;2023-05-13T00:14:48;100695.84;;;10.88;100.00
5574;BME280;2563;52.242;7.956;2023-05-13T00:17:13;100719.91;;;10.86;100.00
5574;BME280;2563;52.242;7.956;2023-05-13T00:19:39;100719.03;;;10.88;100.00
5574;BME280;2563;52.242;7.956;2023-05-13T00:22:05;100713.16;;;10.82;100.00
5574;BME280;2563;52.242;7.956;2023-05-13T00:24:30;100707.28;;;10.76;100.00
5574;BME280;2563;52.242;7.956;2023-05-13T00:26:55;100706.66;;;10.64;100.00
5574;BME280;2563;52.242;7.956;2023-05-13T00:29:21;100708.47;;;10.61;100.00
5574;BME280;2563;52.242;7.956;2023-05-13T00:31:46;100705.19;;;10.53;100.00
5574;BME280;2563;52.242;7.956;2023-05-13T00:34:11;100711.25;;;10.50;100.00
5574;BME280;2563;52.242;7.956;2023-05-13T00:36:37;100706.25;;;10.44;100.00
5574;BME280;2563;52.242;7.956;2023-05-13T00:39:02;100700.31;;;10.40;100.00
5574;BME280;2563;52.242;7.956;2023-05-13T00:41:28;100702.06;;;10.38;100.00
5574;BME280;2563;52.242;7.956;2023-05-13T00:43:53;100686.78;;;10.32;100.00
5574;BME280;2563;52.242;7.956;2023-05-13T00:46:20;100681.78;;;10.23;100.00
5574;BME280;2563;52.242;7.956;2023-05-13T00:48:46;100679.22;;;10.21;100.00
5574;BME280;2563;52.242;7.956;2023-05-13T00:51:11;100685.28;;;10.19;100.00
5574;BME280;2563;52.242;7.956;2023-05-13T00:53:38;100689.53;;;10.21;100.00
5574;BME280;2563;52.242;7.956;2023-05-13T00:56:04;100691.50;;;10.09;100.00
5574;BME280;2563;52.242;7.956;2023-05-13T00:58:29;100700.03;;;10.11;100.00
5574;BME280;2563;52.242;7.956;2023-05-13T01:01:33;100714.66;;;10.07;100.00
5574;BME280;2563;52.242;7.956;2023-05-13T01:10:10;100738.00;;;9.98;100.00
5574;BME280;2563;52.242;7.956;2023-05-13T01:12:41;100741.47;;;9.95;100.00
5574;BME280;2563;52.242;7.956;2023-05-13T01:15:09;100743.19;;;9.95;100.00
5574;BME280;2563;52.242;7.956;2023-05-13T01:17:43;100748.34;;;9.93;100.00
5574;BME280;2563;52.242;7.956;2023-05-13T01:20:11;100751.91;;;9.88;100.00
5574;BME280;2563;52.242;7.956;2023-05-13T01:22:37;100764.91;;;9.80;100.00
5574;BME280;2563;52.242;7.956;2023-05-13T01:25:02;100776.03;;;9.79;100.00
5574;BME280;2563;52.242;7.956;2023-05-13T01:27:28;100785.53;;;9.77;100.00
5574;BME280;2563;52.242;7.956;2023-05-13T01:29:54;100788.19;;;9.71;100.00
5574;BME280;2563;52.242;7.956;2023-05-13T01:32:21;100799.38;;;9.68;100.00
5574;BME280;2563;52.242;7.956;2023-05-13T01:34:49;100825.13;;;9.64;100.00
5574;BME280;2563;52.242;7.956;2023-05-13T01:37:19;100828.63;;;9.59;100.00
5574;BME280;2563;52.242;7.956;2023-05-13T01:39:45;100832.91;;;9.59;100.00
5574;BME280;2563;52.242;7.956;2023-05-13T01:42:11;100859.50;;;9.58;100.00
5574;BME280;2563;52.242;7.956;2023-05-13T01:44:36;100868.09;;;9.55;100.00
5574;BME280;2563;52.242;7.956;2023-05-13T01:47:02;100869.78;;;9.56;100.00
5574;BME280;2563;52.242;7.956;2023-05-13T01:49:27;100881.91;;;9.48;100.00
5574;BME280;2563;52.242;7.956;2023-05-13T01:51:52;100896.56;;;9.42;100.00
5574;BME280;2563;52.242;7.956;2023-05-13T01:54:18;100906.06;;;9.35;100.00
5574;BME280;2563;52.242;7.956;2023-05-13T01:56:43;100915.56;;;9.31;100.00
5574;BME280;2563;52.242;7.956;2023-05-13T01:59:09;100923.31;;;9.25;100.00
5574;BME280;2563;52.242;7.956;2023-05-13T02:01:35;100926.69;;;9.29;100.00
5574;BME280;2563;52.242;7.956;2023-05-13T02:04:01;100938.78;;;9.22;100.00
5574;BME280;2563;52.242;7.956;2023-05-13T02:06:26;100957.66;;;9.16;100.00
5574;BME280;2563;52.242;7.956;2023-05-13T02:08:52;100975.69;;;9.12;100.00
5574;BME280;2563;52.242;7.956;2023-05-13T02:11:17;100987.72;;;9.10;100.00
5574;BME280;2563;52.242;7.956;2023-05-13T02:13:43;101005.66;;;9.11;100.00
5574;BME280;2563;52.242;7.956;2023-05-13T02:16:10;101020.22;;;9.09;100.00
5574;BME280;2563;52.242;7.956;2023-05-13T02:18:38;101038.25;;;9.06;100.00
5574;BME280;2563;52.242;7.956;2023-05-13T02:21:03;101051.25;;;8.91;100.00
5574;BME280;2563;52.242;7.956;2023-05-13T02:23:29;101062.28;;;8.99;100.00
5574;BME280;2563;52.242;7.956;2023-05-13T02:25:54;101078.56;;;8.98;100.00
5574;BME280;2563;52.242;7.956;2023-05-13T02:28:20;101091.47;;;8.89;100.00
5574;BME280;2563;52.242;7.956;2023-05-13T02:30:45;101102.59;;;8.89;100.00
5574;BME280;2563;52.242;7.956;2023-05-13T02:33:11;101104.34;;;8.84;100.00
5574;BME280;2563;52.242;7.956;2023-05-13T02:35:36;101125.72;;;8.85;100.00
5574;BME280;2563;52.242;7.956;2023-05-13T02:38:01;101136.88;;;8.82;100.00
5574;BME280;2563;52.242;7.956;2023-05-13T02:40:28;101141.16;;;8.79;100.00
5574;BME280;2563;52.242;7.956;2023-05-13T02:42:53;101170.25;;;8.81;100.00
5574;BME280;2563;52.242;7.956;2023-05-13T02:45:19;101177.19;;;8.69;100.00
5574;BME280;2563;52.242;7.956;2023-05-13T02:47:44;101189.97;;;8.76;100.00
5574;BME280;2563;52.242;7.956;2023-05-13T02:50:10;101189.94;;;8.80;100.00
5574;BME280;2563;52.242;7.956;2023-05-13T02:52:36;101203.66;;;8.78;100.00
5574;BME280;2563;52.242;7.956;2023-05-13T02:55:05;101217.34;;;8.75;100.00
5574;BME280;2563;52.242;7.956;2023-05-13T02:57:31;101229.34;;;8.73;100.00
5574;BME280;2563;52.242;7.956;2023-05-13T03:00:00;101237.09;;;8.67;100.00
5574;BME280;2563;52.242;7.956;2023-05-13T03:02:25;101247.31;;;8.68;100.00
5574;BME280;2563;52.242;7.956;2023-05-13T03:04:52;101267.06;;;8.60;100.00
5574;BME280;2563;52.242;7.956;2023-05-13T03:07:19;101271.31;;;8.61;100.00
5574;BME280;2563;52.242;7.956;2023-05-13T03:09:44;101287.56;;;8.59;100.00
5574;BME280;2563;52.242;7.956;2023-05-13T03:12:10;101295.28;;;8.54;100.00
5574;BME280;2563;52.242;7.956;2023-05-13T03:14:35;101295.28;;;8.54;100.00
5574;BME280;2563;52.242;7.956;2023-05-13T03:17:04;101299.59;;;8.49;100.00
5574;BME280;2563;52.242;7.956;2023-05-13T03:19:29;101297.06;;;8.34;100.00
5574;BME280;2563;52.242;7.956;2023-05-13T03:21:55;101309.03;;;8.28;100.00
5574;BME280;2563;52.242;7.956;2023-05-13T03:24:20;101319.28;;;8.31;100.00
5574;BME280;2563;52.242;7.956;2023-05-13T03:26:45;101331.25;;;8.36;100.00
5574;BME280;2563;52.242;7.956;2023-05-13T03:29:11;101342.34;;;8.38;100.00
5574;BME280;2563;52.242;7.956;2023-05-13T03:31:36;101358.63;;;8.27;100.00
5574;BME280;2563;52.242;7.956;2023-05-13T03:34:02;101371.44;;;8.14;100.00
5574;BME280;2563;52.242;7.956;2023-05-13T03:36:27;101397.97;;;8.09;100.00
5574;BME280;2563;52.242;7.956;2023-05-13T03:38:53;101409.91;;;8.09;100.00
5574;BME280;2563;52.242;7.956;2023-05-13T03:41:18;101421.03;;;8.17;100.00
5574;BME280;2563;52.242;7.956;2023-05-13T03:43:45;101440.72;;;8.21;100.00
5574;BME280;2563;52.242;7.956;2023-05-13T03:46:10;101439.84;;;8.18;100.00
5574;BME280;2563;52.242;7.956;2023-05-13T03:48:36;101457.81;;;8.28;100.00
5574;BME280;2563;52.242;7.956;2023-05-13T03:51:01;101468.06;;;8.22;100.00
5574;BME280;2563;52.242;7.956;2023-05-13T03:53:27;101479.16;;;8.20;100.00
5574;BME280;2563;52.242;7.956;2023-05-13T03:55:52;101491.16;;;8.28;100.00
5574;BME280;2563;52.242;7.956;2023-05-13T03:58:18;101494.56;;;8.20;100.00
5574;BME280;2563;52.242;7.956;2023-05-13T04:00:43;101498.84;;;8.19;100.00
5574;BME280;2563;52.242;7.956;2023-05-13T04:03:12;101508.22;;;8.28;100.00
5574;BME280;2563;52.242;7.956;2023-05-13T04:05:38;101512.50;;;8.27;100.00
5574;BME280;2563;52.242;7.956;2023-05-13T04:08:04;101522.78;;;8.37;100.00
5574;BME280;2563;52.242;7.956;2023-05-13T04:10:29;101533.91;;;8.39;100.00
5574;BME280;2563;52.242;7.956;2023-05-13T04:12:55;101538.22;;;8.41;100.00
5574;BME280;2563;52.242;7.956;2023-05-13T04:15:20;101545.91;;;8.40;100.00
5574;BME280;2563;52.242;7.956;2023-05-13T04:17:45;101561.31;;;8.84;100.00
5574;BME280;2563;52.242;7.956;2023-05-13T04:20:11;101621.84;;;9.99;100.00
5574;BME280;2563;52.242;7.956;2023-05-13T04:22:36;101652.41;;;10.59;100.00
5574;BME280;2563;52.242;7.956;2023-05-13T04:25:02;101655.69;;;10.79;100.00
5574;BME280;2563;52.242;7.956;2023-05-13T04:27:27;101657.06;;;11.23;100.00
5574;BME280;2563;52.242;7.956;2023-05-13T04:29:53;101637.03;;;11.48;100.00
5574;BME280;2563;52.242;7.956;2023-05-13T04:32:18;101611.53;;;11.24;100.00
5574;BME280;2563;52.242;7.956;2023-05-13T04:34:49;101547.09;;;10.25;100.00
5574;BME280;2563;52.242;7.956;2023-05-13T04:37:15;101518.19;;;9.85;100.00
5574;BME280;2563;52.242;7.956;2023-05-13T04:39:45;101510.53;;;9.66;100.00
5574;BME280;2563;52.242;7.956;2023-05-13T04:42:11;101500.31;;;9.58;100.00
5574;BME280;2563;52.242;7.956;2023-05-13T04:44:36;101502.03;;;9.56;100.00
5574;BME280;2563;52.242;7.956;2023-05-13T04:47:02;101501.16;;;9.57;100.00
5574;BME280;2563;52.242;7.956;2023-05-13T04:49:27;101503.72;;;9.57;100.00
5574;BME280;2563;52.242;7.956;2023-05-13T04:51:53;101499.47;;;9.58;100.00
5574;BME280;2563;52.242;7.956;2023-05-13T04:54:18;101507.16;;;9.59;100.00
5574;BME280;2563;52.242;7.956;2023-05-13T04:56:43;101515.69;;;9.65;100.00
5574;BME280;2563;52.242;7.956;2023-05-13T04:59:09;101517.38;;;9.75;100.00
5574;BME280;2563;52.242;7.956;2023-05-13T05:01:34;101527.63;;;9.84;100.00
5574;BME280;2563;52.242;7.956;2023-05-13T05:04:00;101531.88;;;9.87;100.00
5574;BME280;2563;52.242;7.956;2023-05-13T05:06:26;101541.25;;;9.95;100.00
5574;BME280;2563;52.242;7.956;2023-05-13T05:08:51;101545.53;;;10.01;100.00
5574;BME280;2563;52.242;7.956;2023-05-13T05:11:17;101561.72;;;10.14;100.00
5574;BME280;2563;52.242;7.956;2023-05-13T05:13:42;101564.19;;;10.34;100.00
5574;BME280;2563;52.242;7.956;2023-05-13T05:16:08;101576.09;;;10.50;100.00
5574;BME280;2563;52.242;7.956;2023-05-13T05:18:33;101593.03;;;10.80;100.00
5574;BME280;2563;52.242;7.956;2023-05-13T05:21:00;101607.31;;;11.15;100.00
5574;BME280;2563;52.242;7.956;2023-05-13T05:23:26;101623.31;;;11.46;100.00
5574;BME280;2563;52.242;7.956;2023-05-13T05:25:51;101626.41;;;11.78;100.00
5574;BME280;2563;52.242;7.956;2023-05-13T05:28:16;101628.63;;;12.11;100.00
5574;BME280;2563;52.242;7.956;2023-05-13T05:30:42;101622.16;;;12.40;100.00
5574;BME280;2563;52.242;7.956;2023-05-13T05:33:07;101603.75;;;12.62;100.00
5574;BME280;2563;52.242;7.956;2023-05-13T05:35:33;101591.47;;;12.76;100.00
5574;BME280;2563;52.242;7.956;2023-05-13T05:38:02;101573.84;;;12.99;100.00
5574;BME280;2563;52.242;7.956;2023-05-13T05:40:29;101560.63;;;13.16;100.00
5574;BME280;2563;52.242;7.956;2023-05-13T05:42:55;101557.22;;;13.61;100.00
5574;BME280;2563;52.242;7.956;2023-05-13T05:45:20;101539.72;;;13.72;100.00
5574;BME280;2563;52.242;7.956;2023-05-13T05:47:45;101508.06;;;13.61;100.00
5574;BME280;2563;52.242;7.956;2023-05-13T05:50:11;101502.03;;;13.98;100.00
5574;BME280;2563;52.242;7.956;2023-05-13T05:52:36;101470.19;;;13.96;100.00
5574;BME280;2563;52.242;7.956;2023-05-13T05:55:01;101433.06;;;13.97;100.00
5574;BME280;2563;52.242;7.956;2023-05-13T05:57:27;101421.34;;;14.16;100.00
5574;BME280;2563;52.242;7.956;2023-05-13T05:59:53;101390.59;;;14.04;100.00
5574;BME280;2563;52.242;7.956;2023-05-13T06:02:18;101365.34;;;14.12;100.00
5574;BME280;2563;52.242;7.956;2023-05-13T06:04:43;101351.44;;;14.16;100.00
5574;BME280;2563;52.242;7.956;2023-05-13T06:07:09;101354.34;;;14.70;100.00
5574;BME280;2563;52.242;7.956;2023-05-13T06:09:34;101334.00;;;14.87;100.00
5574;BME280;2563;52.242;7.956;2023-05-13T06:11:59;101315.38;;;15.02;100.00
5574;BME280;2563;52.242;7.956;2023-05-13T06:14:25;101309.34;;;15.57;100.00
5574;BME280;2563;52.242;7.956;2023-05-13T06:16:50;101271.91;;;15.64;100.00
5574;BME280;2563;52.242;7.956;2023-05-13T06:19:16;101247.19;;;15.79;100.00
5574;BME280;2563;52.242;7.956;2023-05-13T06:21:41;101204.31;;;15.67;100.00
5574;BME280;2563;52.242;7.956;2023-05-13T06:24:08;101175.88;;;15.89;100.00
5574;BME280;2563;52.242;7.956;2023-05-13T06:26:33;101129.63;;;15.99;100.00
5574;BME280;2563;52.242;7.956;2023-05-13T06:28:59;101111.97;;;16.30;100.00
5574;BME280;2563;52.242;7.956;2023-05-13T06:31:25;101100.78;;;16.72;100.00
5574;BME280;2563;52.242;7.956;2023-05-13T06:33:50;101079.91;;;16.96;100.00
5574;BME280;2563;52.242;7.956;2023-05-13T06:36:16;101068.59;;;17.17;100.00
5574;BME280;2563;52.242;7.956;2023-05-13T06:38:41;101058.50;;;16.89;100.00
5574;BME280;2563;52.242;7.956;2023-05-13T06:41:06;101051.72;;;17.45;100.00
5574;BME280;2563;52.242;7.956;2023-05-13T06:43:32;101050.09;;;17.82;100.00
5574;BME280;2563;52.242;7.956;2023-05-13T06:45:57;101048.44;;;18.17;100.00
5574;BME280;2563;52.242;7.956;2023-05-13T06:48:23;101051.75;;;18.02;100.00
5574;BME280;2563;52.242;7.956;2023-05-13T06:50:49;101058.34;;;18.45;100.00
5574;BME280;2563;52.242;7.956;2023-05-13T06:53:14;101067.84;;;18.83;100.00
5574;BME280;2563;52.242;7.956;2023-05-13T06:55:40;101076.66;;;18.63;100.00
5574;BME280;2563;52.242;7.956;2023-05-13T06:58:08;101092.50;;;18.76;100.00
5574;BME280;2563;52.242;7.956;2023-05-13T07:00:38;101109.06;;;18.02;100.00
5574;BME280;2563;52.242;7.956;2023-05-13T07:03:05;101112.47;;;18.04;100.00
5574;BME280;2563;52.242;7.956;2023-05-13T07:05:34;101126.91;;;18.47;100.00
5574;BME280;2563;52.242;7.956;2023-05-13T07:08:00;101130.41;;;18.65;100.00
5574;BME280;2563;52.242;7.956;2023-05-13T07:10:30;101116.16;;;19.07;100.00
5574;BME280;2563;52.242;7.956;2023-05-13T07:12:56;101112.50;;;19.45;100.00
5574;BME280;2563;52.242;7.956;2023-05-13T07:15:21;101104.56;;;19.30;100.00
5574;BME280;2563;52.242;7.956;2023-05-13T07:17:48;101102.94;;;19.61;100.00
5574;BME280;2563;52.242;7.956;2023-05-13T07:20:13;101095.16;;;20.25;100.00
5574;BME280;2563;52.242;7.956;2023-05-13T07:22:38;101088.06;;;20.43;100.00
5574;BME280;2563;52.242;7.956;2023-05-13T07:25:04;101087.75;;;20.17;100.00
5574;BME280;2563;52.242;7.956;2023-05-13T07:27:30;101096.34;;;19.71;100.00
5574;BME280;2563;52.242;7.956;2023-05-13T07:29:55;101091.88;;;19.73;100.00
5574;BME280;2563;52.242;7.956;2023-05-13T07:32:21;101110.00;;;20.40;100.00
5574;BME280;2563;52.242;7.956;2023-05-13T07:34:46;101152.34;;;20.63;100.00
5574;BME280;2563;52.242;7.956;2023-05-13T07:37:11;101221.22;;;21.23;100.00
5574;BME280;2563;52.242;7.956;2023-05-13T07:39:37;101227.38;;;21.38;100.00
5574;BME280;2563;52.242;7.956;2023-05-13T07:42:02;101181.88;;;20.65;100.00
5574;BME280;2563;52.242;7.956;2023-05-13T07:44:27;101176.81;;;20.62;100.00
5574;BME280;2563;52.242;7.956;2023-05-13T07:46:53;101170.13;;;20.72;100.00
5574;BME280;2563;52.242;7.956;2023-05-13T07:49:19;101184.22;;;21.30;100.00
5574;BME280;2563;52.242;7.956;2023-05-13T07:51:45;101153.16;;;20.79;100.00
5574;BME280;2563;52.242;7.956;2023-05-13T07:54:11;101113.94;;;20.93;100.00
5574;BME280;2563;52.242;7.956;2023-05-13T07:56:36;101060.31;;;21.15;100.00
5574;BME280;2563;52.242;7.956;2023-05-13T07:59:04;100976.22;;;21.62;100.00
5574;BME280;2563;52.242;7.956;2023-05-13T08:01:30;100892.22;;;21.91;100.00
5574;BME280;2563;52.242;7.956;2023-05-13T08:03:55;100883.69;;;22.27;100.00
5574;BME280;2563;52.242;7.956;2023-05-13T08:06:20;100894.03;;;21.63;100.00
5574;BME280;2563;52.242;7.956;2023-05-13T08:08:49;100862.72;;;22.53;100.00
5574;BME280;2563;52.242;7.956;2023-05-13T08:11:14;100900.09;;;21.91;100.00
5574;BME280;2563;52.242;7.956;2023-05-13T08:13:39;100913.00;;;21.94;100.00
5574;BME280;2563;52.242;7.956;2023-05-13T08:16:05;100947.78;;;22.36;100.00
5574;BME280;2563;52.242;7.956;2023-05-13T08:18:33;100972.97;;;22.26;100.00
5574;BME280;2563;52.242;7.956;2023-05-13T08:20:58;100995.13;;;22.35;100.00
5574;BME280;2563;52.242;7.956;2023-05-13T08:23:24;101017.94;;;22.20;100.00
5574;BME280;2563;52.242;7.956;2023-05-13T08:25:50;101047.66;;;22.60;100.00
5574;BME280;2563;52.242;7.956;2023-05-13T08:28:15;101031.72;;;23.27;100.00
5574;BME280;2563;52.242;7.956;2023-05-13T08:30:40;100984.81;;;23.34;100.00
5574;BME280;2563;52.242;7.956;2023-05-13T08:33:08;101089.59;;;23.51;100.00
5574;BME280;2563;52.242;7.956;2023-05-13T08:35:34;101081.97;;;23.85;100.00
5574;BME280;2563;52.242;7.956;2023-05-13T08:37:59;101201.72;;;23.38;100.00
5574;BME280;2563;52.242;7.956;2023-05-13T08:40:24;101238.53;;;22.98;100.00
5574;BME280;2563;52.242;7.956;2023-05-13T08:42:52;101260.94;;;24.08;100.00
5574;BME280;2563;52.242;7.956;2023-05-13T08:45:20;101275.69;;;23.19;100.00
5574;BME280;2563;52.242;7.956;2023-05-13T08:47:55;101276.72;;;23.69;100.00
5574;BME280;2563;52.242;7.956;2023-05-13T08:50:22;101284.50;;;22.77;100.00
5574;BME280;2563;52.242;7.956;2023-05-13T08:52:51;101286.63;;;22.57;100.00
5574;BME280;2563;52.242;7.956;2023-05-13T08:55:18;101285.88;;;22.97;100.00
5574;BME280;2563;52.242;7.956;2023-05-13T08:57:44;101289.56;;;23.74;100.00
5574;BME280;2563;52.242;7.956;2023-05-13T09:00:09;101292.84;;;24.16;100.00
5574;BME280;2563;52.242;7.956;2023-05-13T09:02:35;101286.88;;;23.48;100.00
5574;BME280;2563;52.242;7.956;2023-05-13T09:05:04;101287.78;;;24.13;100.00
5574;BME280;2563;52.242;7.956;2023-05-13T09:07:31;101284.31;;;23.74;100.00
5574;BME280;2563;52.242;7.956;2023-05-13T09:09:57;101288.19;;;23.94;100.00
5574;BME280;2563;52.242;7.956;2023-05-13T09:12:52;101277.41;;;23.46;100.00
5574;BME280;2563;52.242;7.956;2023-05-13T09:15:19;101279.59;;;23.26;100.00
5574;BME280;2563;52.242;7.956;2023-05-13T09:18:04;101285.59;;;23.81;100.00
5574;BME280;2563;52.242;7.956;2023-05-13T09:20:30;101286.16;;;24.49;100.00
5574;BME280;2563;52.242;7.956;2023-05-13T09:23:01;101274.09;;;23.17;100.00
5574;BME280;2563;52.242;7.956;2023-05-13T09:25:29;101282.53;;;23.87;100.00
5574;BME280;2563;52.242;7.956;2023-05-13T09:27:59;101278.84;;;23.77;100.00
5574;BME280;2563;52.242;7.956;2023-05-13T09:30:32;101269.38;;;24.00;100.00
5574;BME280;2563;52.242;7.956;2023-05-13T09:33:17;101264.47;;;23.30;100.00
5574;BME280;2563;52.242;7.956;2023-05-13T09:35:52;101284.59;;;24.46;100.00
5574;BME280;2563;52.242;7.956;2023-05-13T09:38:19;101262.97;;;23.91;100.00
5574;BME280;2563;52.242;7.956;2023-05-13T09:40:53;101269.69;;;24.08;100.00
5574;BME280;2563;52.242;7.956;2023-05-13T09:43:27;101268.19;;;24.17;100.00
5574;BME280;2563;52.242;7.956;2023-05-13T09:45:53;101266.53;;;23.77;100.00
5574;BME280;2563;52.242;7.956;2023-05-13T09:48:20;101268.34;;;23.90;100.00
5574;BME280;2563;52.242;7.956;2023-05-13T09:50:48;101272.94;;;24.74;100.00
5574;BME280;2563;52.242;7.956;2023-05-13T09:53:15;101281.88;;;24.48;100.00
5574;BME280;2563;52.242;7.956;2023-05-13T09:55:51;101257.72;;;24.04;100.00
5574;BME280;2563;52.242;7.956;2023-05-13T09:58:17;101265.94;;;24.36;100.00
5574;BME280;2563;52.242;7.956;2023-05-13T10:00:45;101266.69;;;24.38;100.00
5574;BME280;2563;52.242;7.956;2023-05-13T10:03:11;101270.41;;;24.73;100.00
5574;BME280;2563;52.242;7.956;2023-05-13T10:05:40;101261.47;;;25.35;100.00
5574;BME280;2563;52.242;7.956;2023-05-13T10:08:10;101262.22;;;24.65;100.00
5574;BME280;2563;52.242;7.956;2023-05-13T10:10:37;101271.97;;;25.70;100.00
5574;BME280;2563;52.242;7.956;2023-05-13T10:13:04;101252.72;;;26.03;100.00
5574;BME280;2563;52.242;7.956;2023-05-13T10:15:31;101260.88;;;26.12;100.00
5574;BME280;2563;52.242;7.956;2023-05-13T10:17:58;101250.28;;;24.72;100.00
5574;BME280;2563;52.242;7.956;2023-05-13T10:20:24;101260.00;;;24.71;100.00
5574;BME280;2563;52.242;7.956;2023-05-13T10:22:53;101257.13;;;25.22;100.00
5574;BME280;2563;52.242;7.956;2023-05-13T10:25:19;101258.44;;;24.56;100.00
5574;BME280;2563;52.242;7.956;2023-05-13T10:27:46;101246.19;;;24.68;100.00
5574;BME280;2563;52.242;7.956;2023-05-13T10:30:12;101254.06;;;25.40;100.00
5574;BME280;2563;52.242;7.956;2023-05-13T10:32:38;101250.31;;;26.12;100.00
5574;BME280;2563;52.242;7.956;2023-05-13T10:35:12;101247.13;;;25.15;100.00
5574;BME280;2563;52.242;7.956;2023-05-13T10:43:30;101240.28;;;25.47;100.00
5574;BME280;2563;52.242;7.956;2023-05-13T10:45:57;101234.81;;;25.51;100.00
5574;BME280;2563;52.242;7.956;2023-05-13T10:48:24;101232.97;;;25.40;100.00
5574;BME280;2563;52.242;7.956;2023-05-13T10:51:12;101235.22;;;24.98;100.00
5574;BME280;2563;52.242;7.956;2023-05-13T10:53:49;101228.81;;;25.60;100.00
5574;BME280;2563;52.242;7.956;2023-05-13T10:56:19;101231.19;;;25.52;98.83
5574;BME280;2563;52.242;7.956;2023-05-13T10:59:03;101226.91;;;24.91;98.59
5574;BME280;2563;52.242;7.956;2023-05-13T11:01:36;101227.66;;;25.17;98.37
5574;BME280;2563;52.242;7.956;2023-05-13T11:04:13;101228.22;;;24.86;100.00
5574;BME280;2563;52.242;7.956;2023-05-13T11:06:40;101218.22;;;25.02;100.00
5574;BME280;2563;52.242;7.956;2023-05-13T11:09:07;101230.88;;;26.24;100.00
5574;BME280;2563;52.242;7.956;2023-05-13T11:11:34;101230.50;;;26.83;95.47
5574;BME280;2563;52.242;7.956;2023-05-13T11:14:29;101210.22;;;26.29;90.99
5574;BME280;2563;52.242;7.956;2023-05-13T11:21:53;101212.50;;;25.66;91.11
5574;BME280;2563;52.242;7.956;2023-05-13T11:24:20;101213.34;;;25.44;92.29
5574;BME280;2563;52.242;7.956;2023-05-13T11:26:52;101204.47;;;25.45;90.42
5574;BME280;2563;52.242;7.956;2023-05-13T11:29:34;101213.13;;;26.26;90.93
5574;BME280;2563;52.242;7.956;2023-05-13T11:32:02;101209.94;;;26.43;86.86
5574;BME280;2563;52.242;7.956;2023-05-13T11:34:28;101206.19;;;26.02;87.79
5574;BME280;2563;52.242;7.956;2023-05-13T11:36:55;101213.28;;;26.68;87.84
5574;BME280;2563;52.242;7.956;2023-05-13T11:39:22;101200.81;;;26.47;85.52
5574;BME280;2563;52.242;7.956;2023-05-13T11:41:51;101205.53;;;26.33;84.86
5574;BME280;2563;52.242;7.956;2023-05-13T11:44:22;101199.28;;;26.45;82.52
5574;BME280;2563;52.242;7.956;2023-05-13T11:49:34;101205.53;;;27.08;80.70
5574;BME280;2563;52.242;7.956;2023-05-13T11:52:02;101198.16;;;26.70;80.08
5574;BME280;2563;52.242;7.956;2023-05-13T11:54:28;101205.78;;;27.68;79.46
5574;BME280;2563;52.242;7.956;2023-05-13T11:56:53;101199.75;;;27.35;78.14
5574;BME280;2563;52.242;7.956;2023-05-13T11:59:18;101205.50;;;27.41;78.19
5574;BME280;2563;52.242;7.956;2023-05-13T12:01:44;101188.31;;;27.87;75.22
5574;BME280;2563;52.242;7.956;2023-05-13T12:04:10;101181.09;;;27.89;73.55
5574;BME280;2563;52.242;7.956;2023-05-13T12:06:42;101196.84;;;26.97;74.91
5574;BME280;2563;52.242;7.956;2023-05-13T12:09:10;101185.78;;;26.27;76.18
5574;BME280;2563;52.242;7.956;2023-05-13T12:11:37;101189.22;;;26.82;79.51
5574;BME280;2563;52.242;7.956;2023-05-13T12:14:03;101186.75;;;27.53;77.64
5574;BME280;2563;52.242;7.956;2023-05-13T12:16:28;101199.59;;;27.89;78.41
5574;BME280;2563;52.242;7.956;2023-05-13T12:19:04;101197.16;;;27.76;77.38
5574;BME280;2563;52.242;7.956;2023-05-13T12:21:31;101189.81;;;26.54;75.59
5574;BME280;2563;52.242;7.956;2023-05-13T12:23:57;101187.94;;;25.54;76.14
5574;BME280;2563;52.242;7.956;2023-05-13T12:26:23;101184.75;;;24.56;77.83
5574;BME280;2563;52.242;7.956;2023-05-13T12:28:55;101188.28;;;24.68;80.65
5574;BME280;2563;52.242;7.956;2023-05-13T12:31:21;101193.84;;;26.58;78.67
5574;BME280;2563;52.242;7.956;2023-05-13T12:33:48;101194.13;;;27.50;76.91
5574;BME280;2563;52.242;7.956;2023-05-13T12:36:27;101160.38;;;26.79;75.89
5574;BME280;2563;52.242;7.956;2023-05-13T12:39:02;101170.41;;;25.19;75.70
5574;BME280;2563;52.242;7.956;2023-05-13T12:41:29;101184.38;;;24.36;79.62
5574;BME280;2563;52.242;7.956;2023-05-13T12:44:23;101191.09;;;24.04;83.37
5574;BME280;2563;52.242;7.956;2023-05-13T12:46:51;101187.03;;;23.87;85.28
5574;BME280;2563;52.242;7.956;2023-05-13T12:49:17;101200.50;;;25.04;85.88
5574;BME280;2563;52.242;7.956;2023-05-13T12:51:42;101172.84;;;24.98;78.57
5574;BME280;2563;52.242;7.956;2023-05-13T12:54:10;101158.44;;;25.49;74.29
5574;BME280;2563;52.242;7.956;2023-05-13T12:56:36;101161.44;;;26.12;72.51
5574;BME280;2563;52.242;7.956;2023-05-13T12:59:04;101152.25;;;25.03;71.94
5574;BME280;2563;52.242;7.956;2023-05-13T13:01:29;101158.06;;;24.84;73.18
5574;BME280;2563;52.242;7.956;2023-05-13T13:03:55;101179.03;;;25.21;76.16
5574;BME280;2563;52.242;7.956;2023-05-13T13:06:20;101156.53;;;25.29;75.94
5574;BME280;2563;52.242;7.956;2023-05-13T13:08:46;101154.09;;;25.14;75.92
5574;BME280;2563;52.242;7.956;2023-05-13T13:11:11;101157.13;;;26.00;74.67
5574;BME280;2563;52.242;7.956;2023-05-13T13:13:43;101160.66;;;26.44;73.95
5574;BME280;2563;52.242;7.956;2023-05-13T13:16:08;101143.28;;;26.30;71.28
5574;BME280;2563;52.242;7.956;2023-05-13T13:18:34;101128.09;;;26.22;69.61
5574;BME280;2563;52.242;7.956;2023-05-13T13:20:59;101142.88;;;26.78;69.77
5574;BME280;2563;52.242;7.956;2023-05-13T13:23:25;101144.66;;;26.57;69.49